Time;durP1;ratioP1;P1;durP2;ratioP2;P2;SDS_P1;SDS_P2;PMS_P1;PMS_P2;Temp;Humidity;BMP_temperature;BMP_pressure;BME280_temperature;BME280_humidity;BME280_pressure;Samples;Min_cycle;Max_cycle;Signal;HPM_P1;HPM_P2
2023/05/14 00:01:24;;;;;;;5.15;3.28;;;18.50;55.30;;;;;;5064752;28;45490;-69
2023/05/14 00:03:52;;;;;;;4.45;2.80;;;18.50;56.00;;;;;;5065085;28;45323;-68
2023/05/14 00:06:24;;;;;;;4.53;2.83;;;18.50;55.30;;;;;;5065117;28;45328;-68
2023/05/14 00:08:51;;;;;;;3.78;3.05;;;18.50;55.30;;;;;;5064951;28;45618;-68
2023/05/14 00:11:18;;;;;;;3.75;2.90;;;18.50;55.40;;;;;;5064839;28;45319;-68
2023/05/14 00:13:45;;;;;;;3.10;2.70;;;18.50;55.40;;;;;;5064906;28;45421;-68
2023/05/14 00:16:12;;;;;;;4.53;2.97;;;18.50;55.30;;;;;;5065108;28;45391;-68
2023/05/14 00:18:38;;;;;;;3.50;2.75;;;18.40;55.40;;;;;;5064764;28;47288;-68
2023/05/14 00:21:06;;;;;;;4.35;2.60;;;18.40;55.30;;;;;;5064786;28;45185;-68
2023/05/14 00:23:33;;;;;;;3.63;2.42;;;18.40;55.30;;;;;;5064721;28;45302;-68
2023/05/14 00:26:00;;;;;;;5.60;3.08;;;18.40;55.30;;;;;;5065033;28;45304;-68
2023/05/14 00:28:27;;;;;;;5.43;2.90;;;18.40;55.40;;;;;;5064602;28;45333;-68
2023/05/14 00:30:54;;;;;;;2.95;2.60;;;18.40;55.40;;;;;;5064528;28;45460;-68
2023/05/14 00:33:21;;;;;;;5.45;3.33;;;18.40;55.30;;;;;;5064768;28;45283;-68
2023/05/14 00:35:48;;;;;;;3.78;2.97;;;18.40;55.40;;;;;;5064800;28;45416;-68
2023/05/14 00:38:18;;;;;;;3.50;2.53;;;18.40;55.40;;;;;;5064428;28;47288;-68
2023/05/14 00:40:50;;;;;;;3.78;2.80;;;18.30;55.40;;;;;;5064368;28;45301;-68
2023/05/14 00:43:17;;;;;;;5.18;2.95;;;18.30;55.40;;;;;;5064744;28;45233;-67
2023/05/14 00:45:43;;;;;;;3.45;2.67;;;18.30;55.40;;;;;;5064580;28;45538;-70
2023/05/14 00:48:10;;;;;;;3.00;2.67;;;18.30;55.50;;;;;;5064301;28;46660;-68
2023/05/14 00:50:37;;;;;;;5.65;3.53;;;18.30;56.10;;;;;;5064261;28;45441;-68
2023/05/14 00:53:08;;;;;;;2.95;2.22;;;18.30;55.40;;;;;;5064364;28;45327;-70
2023/05/14 00:55:37;;;;;;;3.70;2.30;;;18.30;55.50;;;;;;5064493;28;45477;-69
2023/05/14 00:58:05;;;;;;;3.30;2.65;;;18.30;55.50;;;;;;5064040;28;46416;-69
2023/05/14 01:00:32;;;;;;;3.35;2.33;;;18.20;55.40;;;;;;5063864;28;45400;-68
2023/05/14 01:03:00;;;;;;;2.70;1.90;;;18.20;55.50;;;;;;5064368;28;45392;-70
2023/05/14 01:05:27;;;;;;;4.13;2.65;;;18.20;55.40;;;;;;5064153;28;45391;-69
2023/05/14 01:07:57;;;;;;;4.88;2.80;;;18.20;55.40;;;;;;5064869;28;45475;-69
2023/05/14 01:10:27;;;;;;;2.85;2.35;;;18.20;55.40;;;;;;5067391;28;45316;-69
2023/05/14 01:13:00;;;;;;;3.78;2.22;;;18.20;55.40;;;;;;5064905;28;45335;-70
2023/05/14 01:15:29;;;;;;;2.50;2.30;;;18.20;55.40;;;;;;5067713;28;45312;-69
2023/05/14 01:17:59;;;;;;;2.20;2.00;;;18.20;55.40;;;;;;5067286;28;45514;-69
2023/05/14 01:20:26;;;;;;;2.70;2.22;;;18.20;55.40;;;;;;5067401;28;45324;-69
2023/05/14 01:22:54;;;;;;;2.72;2.35;;;18.10;55.40;;;;;;5064909;28;45366;-70
2023/05/14 01:25:21;;;;;;;2.78;2.40;;;18.10;55.40;;;;;;5067495;28;45412;-70
2023/05/14 01:27:50;;;;;;;2.30;2.10;;;18.10;55.40;;;;;;5067197;28;45379;-69
2023/05/14 01:30:24;;;;;;;2.63;2.33;;;18.10;55.40;;;;;;5067105;28;45317;-69
2023/05/14 01:32:54;;;;;;;2.45;2.20;;;18.10;55.40;;;;;;5067162;28;45271;-70
2023/05/14 01:35:22;;;;;;;2.25;2.05;;;18.10;55.50;;;;;;5067545;28;45427;-70
2023/05/14 01:37:49;;;;;;;3.25;2.30;;;18.10;55.40;;;;;;5067199;28;45370;-69
2023/05/14 01:40:18;;;;;;;2.60;2.38;;;18.00;55.50;;;;;;5067175;28;45414;-69
2023/05/14 01:42:44;;;;;;;2.58;2.10;;;18.00;55.40;;;;;;5067177;28;45297;-69
2023/05/14 01:45:11;;;;;;;2.70;2.35;;;18.00;55.40;;;;;;5067243;28;45445;-69
2023/05/14 01:47:38;;;;;;;3.13;2.10;;;18.00;55.50;;;;;;5066890;28;45321;-69
2023/05/14 01:50:06;;;;;;;3.58;2.42;;;18.00;55.50;;;;;;5067059;28;45324;-69
2023/05/14 01:52:33;;;;;;;3.38;2.50;;;18.00;55.50;;;;;;5067038;28;45378;-69
2023/05/14 01:55:00;;;;;;;2.30;2.10;;;18.00;55.50;;;;;;5067250;28;45467;-69
2023/05/14 01:57:28;;;;;;;2.40;2.20;;;18.00;55.60;;;;;;5066666;28;46421;-69
2023/05/14 01:59:55;;;;;;;2.40;2.20;;;17.90;55.50;;;;;;5066677;28;45392;-69
2023/05/14 02:02:24;;;;;;;2.35;2.10;;;17.90;55.50;;;;;;5067280;28;45412;-69
2023/05/14 02:04:51;;;;;;;2.75;2.15;;;17.90;55.60;;;;;;5067095;28;45395;-69
2023/05/14 02:07:18;;;;;;;2.72;2.40;;;17.90;55.60;;;;;;5066629;28;45385;-69
2023/05/14 02:09:45;;;;;;;2.47;2.28;;;17.90;55.60;;;;;;5066670;28;45316;-69
2023/05/14 02:12:12;;;;;;;2.92;1.80;;;17.90;55.60;;;;;;5066771;28;45295;-69
2023/05/14 02:14:40;;;;;;;2.22;1.80;;;17.90;55.60;;;;;;5066794;28;45303;-69
2023/05/14 02:17:07;;;;;;;2.42;2.13;;;17.90;55.60;;;;;;5066722;28;45581;-69
2023/05/14 02:19:34;;;;;;;2.80;2.25;;;17.80;55.60;;;;;;5066443;28;45393;-69
2023/05/14 02:22:01;;;;;;;2.10;1.90;;;17.80;55.60;;;;;;5066614;28;45320;-69
2023/05/14 02:24:27;;;;;;;3.42;2.17;;;17.80;55.60;;;;;;5066564;28;45244;-70
2023/05/14 02:26:54;;;;;;;2.15;1.88;;;17.80;55.60;;;;;;5066241;28;47345;-69
2023/05/14 02:29:21;;;;;;;3.22;2.00;;;17.80;55.60;;;;;;5066407;28;45308;-70
2023/05/14 02:31:49;;;;;;;2.88;1.95;;;17.80;55.60;;;;;;5066208;28;45468;-69
2023/05/14 02:34:16;;;;;;;2.08;1.85;;;17.80;55.70;;;;;;5066534;28;45452;-69
2023/05/14 02:36:43;;;;;;;2.47;2.00;;;17.70;55.70;;;;;;5065940;28;46479;-69
2023/05/14 02:39:10;;;;;;;2.10;1.90;;;17.70;55.70;;;;;;5066162;28;45263;-69
2023/05/14 02:41:37;;;;;;;2.00;1.83;;;17.80;55.70;;;;;;5066326;28;45330;-69
2023/05/14 02:44:04;;;;;;;2.35;2.15;;;17.70;55.70;;;;;;5066346;28;45367;-70
2023/05/14 02:46:31;;;;;;;2.20;1.80;;;17.70;55.70;;;;;;5065819;28;46385;-69
2023/05/14 02:48:59;;;;;;;2.17;1.80;;;17.70;55.80;;;;;;5066174;28;45318;-69
2023/05/14 02:51:26;;;;;;;2.22;2.03;;;17.70;55.70;;;;;;5066082;28;45331;-69
2023/05/14 02:53:53;;;;;;;2.17;1.73;;;17.70;55.70;;;;;;5066222;28;45852;-69
2023/05/14 02:56:19;;;;;;;2.08;1.90;;;17.70;55.80;;;;;;5065835;28;46589;-69
2023/05/14 02:58:47;;;;;;;2.50;2.00;;;17.70;55.80;;;;;;5065927;28;45474;-69
2023/05/14 03:01:13;;;;;;;1.88;1.73;;;17.70;55.80;;;;;;5065787;28;45285;-69
2023/05/14 03:03:40;;;;;;;2.88;1.80;;;17.70;55.80;;;;;;5065905;28;45675;-69
2023/05/14 03:06:09;;;;;;;2.00;1.77;;;17.70;55.80;;;;;;5065506;28;45391;-70
2023/05/14 03:08:36;;;;;;;1.80;1.70;;;17.70;55.80;;;;;;5065688;28;45257;-70
2023/05/14 03:11:03;;;;;;;2.22;1.98;;;17.60;56.40;;;;;;5065908;28;45392;-70
2023/05/14 03:13:29;;;;;;;1.90;1.70;;;17.70;55.80;;;;;;5065666;28;45349;-70
2023/05/14 03:15:56;;;;;;;2.00;1.80;;;17.60;55.80;;;;;;5065454;28;46711;-70
2023/05/14 03:18:23;;;;;;;2.10;1.88;;;17.60;55.80;;;;;;5065543;28;45449;-70
2023/05/14 03:20:50;;;;;;;2.08;1.95;;;17.60;55.80;;;;;;5065702;28;45339;-70
2023/05/14 03:23:18;;;;;;;2.20;2.00;;;17.60;56.50;;;;;;5065809;28;45480;-71
2023/05/14 03:25:45;;;;;;;2.70;2.03;;;17.60;55.90;;;;;;5065158;28;45287;-71
2023/05/14 03:28:12;;;;;;;2.22;1.73;;;17.60;55.90;;;;;;5065430;28;45384;-71
2023/05/14 03:30:39;;;;;;;2.55;2.00;;;17.60;55.90;;;;;;5064969;28;45370;-71
2023/05/14 03:33:05;;;;;;;1.88;1.67;;;17.60;55.90;;;;;;5065385;28;45347;-70
2023/05/14 03:35:32;;;;;;;2.10;1.90;;;17.60;55.90;;;;;;5065080;28;46756;-71
2023/05/14 03:37:59;;;;;;;1.60;1.50;;;17.60;55.90;;;;;;5065333;28;45360;-70
2023/05/14 03:40:27;;;;;;;1.67;1.58;;;17.60;56.00;;;;;;5065398;28;45269;-71
2023/05/14 03:42:54;;;;;;;1.80;1.70;;;17.60;55.90;;;;;;5065381;28;45465;-70
2023/05/14 03:45:21;;;;;;;2.28;1.80;;;17.60;56.00;;;;;;5065101;28;46699;-70
2023/05/14 03:47:48;;;;;;;2.22;2.00;;;17.60;55.90;;;;;;5064970;28;45525;-70
2023/05/14 03:50:15;;;;;;;5.50;1.80;;;17.60;56.00;;;;;;5065171;28;45356;-70
2023/05/14 03:52:42;;;;;;;1.70;1.60;;;17.60;56.00;;;;;;5065295;28;45383;-69
2023/05/14 03:55:10;;;;;;;2.20;1.92;;;17.60;56.00;;;;;;5064687;28;45567;-70
2023/05/14 03:57:38;;;;;;;1.70;1.35;;;17.60;56.10;;;;;;5065240;28;45433;-68
2023/05/14 04:00:06;;;;;;;1.50;1.40;;;17.60;56.00;;;;;;5064696;28;45329;-68
2023/05/14 04:02:33;;;;;;;1.92;1.63;;;17.50;56.00;;;;;;5065189;28;45415;-68
2023/05/14 04:05:00;;;;;;;1.92;1.75;;;17.50;56.00;;;;;;5064758;28;47342;-68
2023/05/14 04:07:26;;;;;;;1.67;1.58;;;17.50;56.00;;;;;;5064766;28;45501;-68
2023/05/14 04:09:53;;;;;;;1.48;1.38;;;17.50;56.00;;;;;;5064903;28;45207;-68
2023/05/14 04:12:20;;;;;;;1.60;1.50;;;17.50;56.10;;;;;;5064917;28;45372;-68
2023/05/14 04:14:48;;;;;;;2.22;2.00;;;17.50;56.10;;;;;;5064646;28;45418;-68
2023/05/14 04:17:15;;;;;;;2.15;1.83;;;17.50;56.10;;;;;;5064676;28;45390;-68
2023/05/14 04:19:42;;;;;;;2.13;1.92;;;17.50;56.10;;;;;;5064846;28;45362;-71
2023/05/14 04:22:09;;;;;;;2.45;1.73;;;17.50;56.10;;;;;;5064920;28;45461;-67
2023/05/14 04:24:36;;;;;;;1.90;1.77;;;17.50;56.10;;;;;;5064368;28;45618;-68
2023/05/14 04:27:02;;;;;;;1.55;1.45;;;17.50;56.10;;;;;;5064519;28;45292;-68
2023/05/14 04:29:30;;;;;;;2.35;1.75;;;17.50;56.10;;;;;;5064798;28;45448;-69
2023/05/14 04:31:58;;;;;;;2.22;2.05;;;17.50;56.10;;;;;;5064688;28;45328;-69
2023/05/14 04:34:25;;;;;;;1.60;1.50;;;17.50;56.20;;;;;;5064324;28;45312;-69
2023/05/14 04:36:52;;;;;;;1.70;1.60;;;17.50;56.20;;;;;;5064424;28;45196;-69
2023/05/14 04:39:19;;;;;;;1.77;1.67;;;17.50;56.20;;;;;;5064709;28;45512;-68
2023/05/14 04:41:45;;;;;;;1.77;1.67;;;17.50;56.20;;;;;;5064657;28;45490;-69
2023/05/14 04:44:12;;;;;;;2.65;1.30;;;17.50;56.10;;;;;;5067070;28;46492;-69
2023/05/14 04:46:40;;;;;;;1.80;1.58;;;17.50;56.10;;;;;;5067988;28;45439;-69
2023/05/14 04:49:08;;;;;;;1.60;1.50;;;17.50;56.20;;;;;;5067999;28;45329;-69
2023/05/14 04:51:34;;;;;;;1.80;1.70;;;17.50;56.20;;;;;;5068198;28;45391;-68
2023/05/14 04:54:01;;;;;;;1.58;1.48;;;17.50;56.20;;;;;;5067383;28;46660;-68
2023/05/14 04:56:28;;;;;;;1.80;1.70;;;17.50;56.20;;;;;;5067764;28;45378;-69
2023/05/14 04:58:55;;;;;;;1.73;1.63;;;17.50;56.20;;;;;;5067846;28;45338;-69
2023/05/14 05:01:22;;;;;;;1.80;1.70;;;17.50;56.20;;;;;;5067760;28;45380;-69
2023/05/14 05:03:48;;;;;;;1.70;1.60;;;17.40;56.20;;;;;;5067409;28;47174;-68
2023/05/14 05:06:17;;;;;;;1.60;1.50;;;17.40;56.20;;;;;;5067405;28;45387;-68
2023/05/14 05:08:43;;;;;;;2.70;1.65;;;17.40;56.80;;;;;;5067752;28;45428;-68
2023/05/14 05:11:10;;;;;;;1.65;1.45;;;17.40;56.20;;;;;;5067909;28;45315;-69
2023/05/14 05:13:37;;;;;;;2.22;1.88;;;17.40;56.20;;;;;;5067296;28;47078;-69
2023/05/14 05:16:04;;;;;;;1.70;1.60;;;17.40;56.20;;;;;;5067270;28;45330;-69
2023/05/14 05:18:31;;;;;;;1.60;1.50;;;17.40;56.30;;;;;;5067664;28;45362;-69
2023/05/14 05:20:58;;;;;;;1.60;1.50;;;17.50;56.30;;;;;;5067786;28;45503;-69
2023/05/14 05:23:27;;;;;;;2.03;1.83;;;17.40;56.20;;;;;;5067138;28;45299;-69
2023/05/14 05:25:53;;;;;;;1.95;1.75;;;17.40;56.30;;;;;;5066910;28;45340;-69
2023/05/14 05:28:20;;;;;;;1.80;1.70;;;17.40;56.20;;;;;;5067495;28;45403;-69
2023/05/14 05:30:47;;;;;;;1.63;1.52;;;17.40;56.20;;;;;;5067474;28;45387;-69
2023/05/14 05:33:14;;;;;;;1.70;1.42;;;17.40;56.30;;;;;;5066955;28;46417;-69
2023/05/14 05:35:42;;;;;;;1.63;1.52;;;17.40;56.20;;;;;;5067028;28;45352;-68
2023/05/14 05:38:08;;;;;;;1.75;1.52;;;17.40;56.20;;;;;;5067479;28;45385;-68
2023/05/14 05:40:37;;;;;;;2.00;1.83;;;17.40;56.20;;;;;;5067428;28;45489;-69
2023/05/14 05:43:03;;;;;;;1.88;1.70;;;17.40;56.30;;;;;;5066891;28;45378;-69
2023/05/14 05:45:30;;;;;;;1.63;1.52;;;17.40;56.30;;;;;;5066929;28;45399;-69
2023/05/14 05:47:57;;;;;;;1.60;1.50;;;17.40;56.30;;;;;;5067117;28;45320;-69
2023/05/14 05:50:24;;;;;;;1.70;1.60;;;17.40;56.30;;;;;;5066056;28;45288;-70
2023/05/14 05:52:51;;;;;;;1.67;1.58;;;17.40;56.30;;;;;;5066734;28;46405;-70
2023/05/14 05:55:18;;;;;;;1.60;1.50;;;17.40;56.30;;;;;;5066273;28;45366;-70
2023/05/14 05:57:46;;;;;;;1.88;1.75;;;17.40;56.30;;;;;;5067087;28;45379;-71
2023/05/14 06:00:14;;;;;;;1.60;1.50;;;17.40;56.40;;;;;;5066922;28;45245;-71
2023/05/14 06:02:41;;;;;;;1.58;1.48;;;17.40;56.40;;;;;;5066677;28;46384;-69
2023/05/14 06:05:08;;;;;;;3.28;1.52;;;17.40;56.40;;;;;;5066467;28;45460;-69
2023/05/14 06:07:35;;;;;;;1.80;1.70;;;17.40;56.40;;;;;;5066769;28;45303;-69
2023/05/14 06:10:02;;;;;;;1.75;1.55;;;17.40;56.40;;;;;;5067082;28;45264;-69
2023/05/14 06:12:29;;;;;;;1.50;1.33;;;17.40;56.40;;;;;;5066420;28;46373;-69
2023/05/14 06:14:57;;;;;;;2.08;1.50;;;17.40;56.40;;;;;;5066534;28;45353;-69
2023/05/14 06:17:23;;;;;;;1.60;1.50;;;17.50;56.40;;;;;;5066625;28;45388;-68
2023/05/14 06:19:51;;;;;;;1.60;1.50;;;17.50;56.40;;;;;;5066670;28;45457;-69
2023/05/14 06:22:18;;;;;;;1.77;1.67;;;17.50;56.30;;;;;;5066372;28;45330;-69
2023/05/14 06:24:45;;;;;;;1.45;1.35;;;17.50;56.30;;;;;;5066299;28;45270;-69
2023/05/14 06:27:12;;;;;;;1.80;1.70;;;17.50;56.30;;;;;;5066474;28;45324;-68
2023/05/14 06:29:39;;;;;;;1.70;1.60;;;17.50;56.30;;;;;;5067062;28;45383;-69
2023/05/14 06:32:08;;;;;;;1.92;1.73;;;17.50;56.30;;;;;;5066021;28;45635;-69
2023/05/14 06:34:35;;;;;;;2.65;1.58;;;17.50;56.30;;;;;;5066096;28;45264;-69
2023/05/14 06:37:03;;;;;;;1.58;1.48;;;17.50;56.30;;;;;;5066418;28;45440;-69
2023/05/14 06:39:29;;;;;;;1.60;1.50;;;17.50;56.30;;;;;;5066550;28;45690;-69
2023/05/14 06:41:56;;;;;;;1.60;1.50;;;17.50;56.30;;;;;;5066074;28;45355;-69
2023/05/14 06:44:23;;;;;;;1.58;1.48;;;17.60;56.30;;;;;;5066280;28;45250;-69
2023/05/14 06:46:50;;;;;;;1.67;1.58;;;17.50;56.30;;;;;;5066182;28;45241;-69
2023/05/14 06:49:19;;;;;;;1.45;1.35;;;17.50;56.20;;;;;;5066293;28;45315;-69
2023/05/14 06:51:45;;;;;;;1.90;1.50;;;17.60;56.30;;;;;;5065754;28;46371;-69
2023/05/14 06:54:12;;;;;;;1.60;1.50;;;17.60;56.20;;;;;;5065771;28;45551;-69
2023/05/14 06:56:39;;;;;;;1.60;1.50;;;17.60;56.20;;;;;;5065864;28;45198;-69
2023/05/14 06:59:06;;;;;;;1.60;1.50;;;17.60;56.20;;;;;;5066174;28;45390;-69
2023/05/14 07:01:32;;;;;;;1.65;1.55;;;17.60;56.20;;;;;;5065721;28;45396;-69
2023/05/14 07:03:59;;;;;;;1.30;1.30;;;17.60;56.10;;;;;;5065658;28;45372;-69
2023/05/14 07:06:28;;;;;;;1.65;1.55;;;17.70;56.20;;;;;;5064944;28;45292;-69
2023/05/14 07:08:54;;;;;;;1.75;1.40;;;17.70;56.10;;;;;;5066145;28;45249;-69
2023/05/14 07:11:21;;;;;;;1.90;1.73;;;17.70;56.10;;;;;;5065659;28;46693;-69
2023/05/14 07:13:48;;;;;;;1.60;1.50;;;17.70;56.10;;;;;;5065509;28;45798;-69
2023/05/14 07:16:15;;;;;;;1.48;1.30;;;17.70;56.10;;;;;;5065701;28;45348;-69
2023/05/14 07:18:42;;;;;;;1.67;1.58;;;17.70;56.10;;;;;;5065913;28;45360;-69
2023/05/14 07:21:09;;;;;;;1.60;1.48;;;17.70;56.00;;;;;;5065384;28;45563;-69
2023/05/14 07:23:37;;;;;;;1.50;1.40;;;17.70;56.00;;;;;;5065614;27;45253;-69
2023/05/14 07:26:04;;;;;;;1.40;1.30;;;17.70;56.00;;;;;;5065425;28;45394;-69
2023/05/14 07:28:31;;;;;;;1.52;1.42;;;17.80;56.00;;;;;;5065755;28;45506;-69
2023/05/14 07:30:58;;;;;;;1.58;1.48;;;17.80;56.10;;;;;;5065335;28;46667;-69
2023/05/14 07:33:25;;;;;;;1.63;1.52;;;17.80;56.10;;;;;;5065093;28;45287;-68
2023/05/14 07:35:52;;;;;;;1.30;1.20;;;17.80;56.20;;;;;;5065406;28;45222;-69
2023/05/14 07:38:19;;;;;;;1.35;1.30;;;17.80;56.10;;;;;;5065453;28;45376;-69
2023/05/14 07:40:47;;;;;;;1.27;1.25;;;17.80;56.10;;;;;;5065175;28;45431;-69
2023/05/14 07:43:14;;;;;;;1.77;1.40;;;17.80;56.10;;;;;;5065257;28;45339;-69
2023/05/14 07:45:41;;;;;;;1.83;1.42;;;17.80;56.10;;;;;;5065206;28;45363;-69
2023/05/14 07:48:08;;;;;;;1.50;1.40;;;17.80;56.10;;;;;;5065376;28;45416;-69
2023/05/14 07:50:35;;;;;;;1.60;1.50;;;17.80;56.10;;;;;;5065127;28;45419;-69
2023/05/14 07:53:01;;;;;;;1.50;1.40;;;17.90;56.20;;;;;;5064949;28;45372;-70
2023/05/14 07:55:28;;;;;;;1.50;1.40;;;17.90;56.10;;;;;;5044960;28;45446;-68
2023/05/14 07:57:57;;;;;;;1.80;1.70;;;17.90;56.10;;;;;;5045091;28;45530;-68
2023/05/14 08:00:23;;;;;;;1.70;1.60;;;17.90;56.10;;;;;;5044633;28;45467;-69
2023/05/14 08:02:50;;;;;;;1.55;1.45;;;17.90;56.00;;;;;;5044835;28;45372;-70
2023/05/14 08:05:17;;;;;;;1.80;1.30;;;18.00;56.00;;;;;;5044733;28;45458;-68
2023/05/14 08:07:44;;;;;;;1.80;1.70;;;18.00;56.00;;;;;;5044938;28;45586;-70
2023/05/14 08:10:11;;;;;;;1.60;1.50;;;18.00;55.90;;;;;;5044531;28;46703;-70
2023/05/14 08:12:38;;;;;;;1.63;1.52;;;18.00;56.00;;;;;;5044517;28;45324;-68
2023/05/14 08:15:08;;;;;;;1.40;1.30;;;18.10;56.00;;;;;;5044671;28;45385;-68
2023/05/14 08:17:35;;;;;;;1.60;1.50;;;18.10;56.00;;;;;;5046839;28;45238;-70
2023/05/14 08:20:01;;;;;;;2.72;1.50;;;18.10;56.00;;;;;;5048189;28;46994;-69
2023/05/14 08:22:28;;;;;;;1.50;1.30;;;18.10;55.90;;;;;;5048127;28;45251;-69
2023/05/14 08:24:55;;;;;;;1.42;1.33;;;18.20;56.00;;;;;;5048333;28;45287;-69
2023/05/14 08:27:22;;;;;;;1.50;1.40;;;18.20;56.00;;;;;;5048524;28;45489;-70
2023/05/14 08:29:49;;;;;;;1.58;1.48;;;18.20;55.90;;;;;;5048005;28;45708;-70
2023/05/14 08:32:17;;;;;;;1.45;1.35;;;18.20;55.90;;;;;;5066072;28;45290;-70
2023/05/14 08:34:44;;;;;;;1.70;1.60;;;18.30;55.90;;;;;;5068336;28;45313;-70
2023/05/14 08:37:11;;;;;;;1.30;1.30;;;18.30;55.90;;;;;;5068502;27;45356;-70
2023/05/14 08:39:37;;;;;;;1.55;1.30;;;18.30;55.90;;;;;;5067892;28;47321;-69
2023/05/14 08:42:06;;;;;;;1.45;1.35;;;18.30;55.90;;;;;;5068147;28;45307;-70
2023/05/14 08:44:35;;;;;;;1.45;1.35;;;18.30;55.90;;;;;;5068129;28;45290;-70
2023/05/14 08:47:02;;;;;;;1.58;1.48;;;18.40;55.90;;;;;;5068141;28;45408;-69
2023/05/14 08:49:40;;;;;;;1.88;1.77;;;18.40;55.90;;;;;;5067845;28;45398;-69
2023/05/14 08:52:07;;;;;;;1.85;1.75;;;18.40;55.90;;;;;;5067969;28;45343;-70
2023/05/14 08:54:34;;;;;;;1.50;1.40;;;18.40;55.90;;;;;;5067750;28;45367;-69
2023/05/14 08:57:01;;;;;;;1.58;1.48;;;18.50;55.90;;;;;;5068183;28;45541;-69
2023/05/14 08:59:27;;;;;;;2.20;1.60;;;18.50;55.90;;;;;;5067663;28;46585;-70
2023/05/14 09:01:54;;;;;;;1.58;1.48;;;18.50;55.90;;;;;;5067682;28;45250;-69
2023/05/14 09:04:22;;;;;;;1.67;1.58;;;18.50;55.90;;;;;;5067698;28;45270;-70
2023/05/14 09:06:52;;;;;;;1.67;1.58;;;18.50;55.90;;;;;;5067897;28;45418;-69
2023/05/14 09:09:21;;;;;;;1.52;1.42;;;18.60;55.90;;;;;;5067489;28;46314;-70
2023/05/14 09:11:49;;;;;;;1.25;1.25;;;18.60;55.90;;;;;;5067666;28;45319;-70
2023/05/14 09:14:16;;;;;;;1.60;1.50;;;18.60;55.90;;;;;;5067651;28;45368;-70
2023/05/14 09:16:44;;;;;;;1.60;1.50;;;18.60;55.90;;;;;;5067693;28;45474;-69
2023/05/14 09:19:11;;;;;;;1.83;1.70;;;18.60;55.80;;;;;;5067384;28;46411;-69
2023/05/14 09:21:38;;;;;;;1.70;1.60;;;18.70;55.90;;;;;;5067414;28;45315;-69
2023/05/14 09:24:07;;;;;;;1.88;1.77;;;18.80;55.80;;;;;;5067319;28;45446;-70
2023/05/14 09:26:34;;;;;;;1.65;1.55;;;18.80;55.70;;;;;;5067479;28;45440;-70
2023/05/14 09:29:02;;;;;;;2.05;1.63;;;18.80;55.70;;;;;;5066535;28;46425;-69
2023/05/14 09:31:30;;;;;;;2.03;1.70;;;18.90;55.80;;;;;;5067111;28;45261;-70
2023/05/14 09:33:57;;;;;;;2.45;1.67;;;18.90;55.80;;;;;;5067213;28;45377;-70
2023/05/14 09:36:25;;;;;;;2.83;1.50;;;18.90;55.80;;;;;;5067291;28;45362;-70
2023/05/14 09:38:52;;;;;;;1.70;1.60;;;18.90;55.70;;;;;;5066944;28;45627;-69
2023/05/14 09:41:21;;;;;;;3.17;1.58;;;19.00;55.80;;;;;;5067088;28;45275;-69
2023/05/14 09:43:50;;;;;;;2.35;1.80;;;19.00;55.90;;;;;;5067316;28;45345;-70
2023/05/14 09:46:17;;;;;;;2.65;1.70;;;19.00;55.90;;;;;;5067317;28;45323;-69
2023/05/14 09:48:43;;;;;;;1.90;1.65;;;19.00;55.90;;;;;;5066998;28;45388;-69
2023/05/14 09:51:10;;;;;;;3.65;1.60;;;19.00;56.00;;;;;;5067154;28;45379;-69
2023/05/14 09:53:37;;;;;;;1.88;1.73;;;19.00;56.00;;;;;;5066881;28;45377;-69
2023/05/14 09:56:04;;;;;;;1.95;1.70;;;19.10;56.10;;;;;;5067099;28;45267;-69
2023/05/14 09:58:33;;;;;;;1.83;1.73;;;19.10;56.10;;;;;;5066722;27;45369;-70
2023/05/14 10:01:00;;;;;;;2.17;1.67;;;19.10;56.10;;;;;;5066579;28;45599;-69
2023/05/14 10:03:27;;;;;;;2.20;1.80;;;19.20;56.10;;;;;;5066883;28;45324;-69
2023/05/14 10:05:54;;;;;;;1.85;1.75;;;19.20;56.00;;;;;;5066886;28;45498;-69
2023/05/14 10:08:25;;;;;;;2.40;1.65;;;19.20;56.00;;;;;;5066406;28;46384;-69
2023/05/14 10:10:52;;;;;;;1.60;1.50;;;19.20;56.00;;;;;;5066713;28;45344;-69
2023/05/14 10:13:20;;;;;;;1.80;1.70;;;19.30;56.00;;;;;;5066672;28;45348;-69
2023/05/14 10:15:50;;;;;;;1.88;1.77;;;19.30;56.00;;;;;;5066766;28;45417;-69
2023/05/14 10:18:18;;;;;;;2.40;1.73;;;19.30;56.00;;;;;;5066565;28;46487;-69
2023/05/14 10:20:46;;;;;;;1.85;1.75;;;19.30;55.90;;;;;;5066556;28;45284;-69
2023/05/14 10:23:13;;;;;;;1.90;1.80;;;19.40;55.90;;;;;;5066553;28;45142;-68
2023/05/14 10:25:40;;;;;;;1.95;1.80;;;19.40;55.80;;;;;;5066668;28;45432;-69
2023/05/14 10:28:07;;;;;;;1.70;1.60;;;19.40;55.80;;;;;;5066260;28;47570;-70
2023/05/14 10:30:34;;;;;;;1.73;1.63;;;19.40;55.70;;;;;;5066313;28;45316;-69
2023/05/14 10:33:09;;;;;;;1.65;1.55;;;19.50;55.80;;;;;;5066391;28;45351;-69
2023/05/14 10:35:52;;;;;;;1.63;1.50;;;19.50;55.80;;;;;;5061747;28;45394;-69
2023/05/14 10:38:22;;;;;;;1.88;1.77;;;19.50;55.70;;;;;;5046393;28;45312;-69
2023/05/14 10:40:49;;;;;;;2.08;1.65;;;19.60;55.70;;;;;;5058475;28;45268;-69
2023/05/14 10:43:16;;;;;;;2.08;1.63;;;19.50;55.80;;;;;;5066150;28;45379;-69
2023/05/14 10:45:44;;;;;;;1.60;1.50;;;19.60;55.90;;;;;;5066269;28;45443;-69
2023/05/14 10:48:12;;;;;;;1.80;1.70;;;19.60;55.90;;;;;;5065837;28;46601;-69
2023/05/14 10:50:39;;;;;;;3.00;1.85;;;19.60;55.90;;;;;;5065919;28;45281;-69
2023/05/14 10:53:06;;;;;;;2.03;1.92;;;19.60;55.80;;;;;;5066034;28;45461;-69
2023/05/14 10:55:33;;;;;;;1.60;1.50;;;19.70;55.90;;;;;;5065964;28;45376;-69
2023/05/14 10:58:00;;;;;;;1.42;1.42;;;19.70;55.90;;;;;;5065927;28;47209;-69
2023/05/14 11:00:27;;;;;;;2.30;1.80;;;19.70;55.80;;;;;;5065487;28;45319;-69
2023/05/14 11:02:55;;;;;;;1.80;1.70;;;19.70;55.70;;;;;;5065927;28;45216;-69
2023/05/14 11:05:26;;;;;;;1.90;1.80;;;19.80;55.80;;;;;;5065744;28;45518;-69
2023/05/14 11:07:53;;;;;;;1.95;1.80;;;19.80;55.80;;;;;;5065674;28;46390;-69
2023/05/14 11:10:20;;;;;;;1.77;1.67;;;19.80;55.80;;;;;;5065787;28;45354;-69
2023/05/14 11:12:48;;;;;;;1.75;1.65;;;19.90;55.60;;;;;;5065731;28;45363;-69
2023/05/14 11:15:15;;;;;;;2.08;1.77;;;19.90;55.50;;;;;;5065775;28;45311;-69
2023/05/14 11:17:42;;;;;;;1.63;1.52;;;19.90;55.40;;;;;;5065509;28;45412;-69
2023/05/14 11:20:10;;;;;;;1.70;1.60;;;19.90;55.30;;;;;;5065730;28;45503;-69
2023/05/14 11:22:39;;;;;;;1.70;1.60;;;20.00;55.40;;;;;;5065668;28;45427;-69
2023/05/14 11:25:07;;;;;;;1.80;1.70;;;20.00;55.40;;;;;;5065805;28;45396;-69
2023/05/14 11:27:35;;;;;;;1.70;1.60;;;20.00;55.40;;;;;;5065258;28;46679;-69
2023/05/14 11:30:02;;;;;;;2.47;1.70;;;20.00;55.30;;;;;;5065446;28;45348;-69
2023/05/14 11:32:29;;;;;;;2.20;1.92;;;20.00;55.40;;;;;;5065386;28;45345;-69
2023/05/14 11:34:56;;;;;;;2.08;1.88;;;20.00;55.30;;;;;;5065291;28;45305;-69
2023/05/14 11:37:23;;;;;;;1.80;1.70;;;20.00;55.30;;;;;;5065138;28;46414;-69
2023/05/14 11:39:53;;;;;;;1.77;1.67;;;20.10;55.40;;;;;;5065407;28;45336;-69
2023/05/14 11:42:20;;;;;;;1.80;1.70;;;20.10;55.40;;;;;;5065249;28;45320;-69
2023/05/14 11:44:47;;;;;;;1.67;1.58;;;20.10;55.50;;;;;;5065358;28;45371;-69
2023/05/14 11:47:14;;;;;;;1.80;1.70;;;20.10;55.60;;;;;;5064961;28;46381;-69
2023/05/14 11:49:41;;;;;;;1.80;1.70;;;20.00;55.50;;;;;;5064822;28;45481;-69
2023/05/14 11:52:10;;;;;;;2.08;1.88;;;20.10;55.60;;;;;;5064764;28;45304;-70
2023/05/14 11:54:37;;;;;;;1.70;1.60;;;20.00;55.60;;;;;;5065163;28;45204;-69
2023/05/14 11:57:08;;;;;;;1.67;1.58;;;20.10;55.70;;;;;;5064776;28;46563;-69
2023/05/14 11:59:35;;;;;;;1.63;1.50;;;20.10;55.70;;;;;;5064556;28;45400;-70
2023/05/14 12:02:03;;;;;;;1.48;1.35;;;20.10;55.80;;;;;;5065119;28;45343;-69
2023/05/14 12:04:30;;;;;;;1.73;1.63;;;20.10;55.70;;;;;;5065465;28;45563;-69
2023/05/14 12:06:58;;;;;;;1.60;1.50;;;20.10;55.70;;;;;;5064674;28;46437;-69
2023/05/14 12:09:25;;;;;;;1.70;1.60;;;20.10;55.60;;;;;;5064691;28;45344;-70
2023/05/14 12:11:52;;;;;;;2.00;1.90;;;20.10;55.60;;;;;;5064967;28;45250;-69
2023/05/14 12:14:21;;;;;;;1.65;1.55;;;20.20;55.60;;;;;;5061957;28;45384;-68
2023/05/14 12:16:48;;;;;;;3.33;1.80;;;20.20;55.60;;;;;;5061264;28;45485;-69
2023/05/14 12:19:15;;;;;;;3.35;1.90;;;20.20;55.70;;;;;;5064749;28;45489;-68
2023/05/14 12:21:43;;;;;;;1.95;1.75;;;20.20;55.80;;;;;;5060703;28;45479;-71
2023/05/14 12:24:10;;;;;;;2.30;1.80;;;20.20;55.90;;;;;;5064215;28;45454;-71
2023/05/14 12:26:38;;;;;;;1.67;1.58;;;20.20;56.10;;;;;;5063249;28;46286;-70
2023/05/14 12:29:06;;;;;;;3.15;1.67;;;20.30;56.20;;;;;;5059276;28;45477;-68
2023/05/14 12:31:35;;;;;;;1.75;1.45;;;20.30;56.20;;;;;;5058283;28;44933;-69
2023/05/14 12:34:01;;;;;;;3.92;1.80;;;20.30;56.20;;;;;;5065582;28;45462;-71
2023/05/14 12:36:28;;;;;;;1.60;1.50;;;20.30;56.20;;;;;;5059219;28;46352;-71
2023/05/14 12:38:58;;;;;;;2.00;1.80;;;20.40;56.20;;;;;;5059034;28;45442;-69
2023/05/14 12:41:25;;;;;;;2.63;1.85;;;20.40;56.10;;;;;;5061165;28;45419;-71
2023/05/14 12:43:52;;;;;;;3.08;1.65;;;20.40;56.00;;;;;;5056299;28;45373;-70
2023/05/14 12:46:19;;;;;;;2.45;2.00;;;20.40;55.90;;;;;;5063655;28;46819;-69
2023/05/14 12:48:47;;;;;;;2.28;2.00;;;20.40;55.80;;;;;;5065862;28;45441;-70